SXE weather

West Sale Airport
Sale, Victoria, Australia

Public forecast

Using degrees Celsius for public forecast. Weather courtesy of forecast.io.

Closest aviation weather report (METAR) to West Sale Airport

Closest report is Melbourne Essendon Airport, 100.1 nm (185.5 km) WNW. Retrieved 2019/10/22 12:00 UTC (22 minutes ago):

YMEN 221200Z AUTO 24006KT 9999 // NCD 12/10 Q1023

Closest aviation forecast (TAF) to West Sale Airport

Closest forecast is Melbourne International Airport, 103.6 nm (192.0 km) WNW. Retrieved 2019/10/22 12:00 UTC (22 minutes ago):

TAF YMML 221106Z 2212/2318 35004KT CAVOK FM230200 23008KT CAVOK FM230700 17008KT CAVOK FM231100 36006KT CAVOK